Allegany, New York
Current Conditions -  °F | °C
As of 3:35 AM on Tuesday 27 Jan 2015 (Local Time) from KOLE Reporting Station
Light Snow Light Snow  
Wind Chill:   Ceiling: 6000
Heat Index: 10°   Visibility: 10mi
Dew Point: 10°   Wind: 7mph
Humidity: 100%   Direction: 30°NNE
Pressure: 29.75"   Gusts: NA
Location:  42.09°N, 78.49°W
Report Text: KOLE 270835Z AUTO 03006KT 10SM -SN BKN060 OVC075 M12/M12 A2975 RMK AO2
Loading
Personal Weather Stations






























Interactive Weather Map New forecast layout! Learn more

10-Day Weather Forecast

Advertisements
Track Severe Weather on mobile